createdAt,value
2023-05-01T00:00:23.914Z,97076.59
2023-05-01T00:03:28.314Z,97072.50
2023-05-01T00:06:30.121Z,97077.81
2023-05-01T00:09:32.355Z,97080.47
2023-05-01T00:12:33.878Z,97067.22
2023-05-01T00:15:35.533Z,97065.91
2023-05-01T00:18:37.633Z,97063.34
2023-05-01T00:21:39.155Z,97063.97
2023-05-01T00:24:40.912Z,97054.22
2023-05-01T00:27:42.373Z,97061.50
2023-05-01T00:30:45.401Z,97046.66
2023-05-01T00:33:46.864Z,97048.66
2023-05-01T00:36:49.760Z,97052.13
2023-05-01T00:39:51.586Z,97042.78
2023-05-01T00:42:54.239Z,97039.97
2023-05-01T00:45:55.863Z,97046.03
2023-05-01T00:48:58.398Z,97030.50
2023-05-01T00:52:00.078Z,97030.69
2023-05-01T00:55:01.781Z,97034.34
2023-05-01T00:58:04.649Z,97023.13
2023-05-01T01:01:08.726Z,97014.09
2023-05-01T01:04:10.220Z,97026.69
2023-05-01T01:07:21.947Z,97018.13
2023-05-01T01:10:31.044Z,97011.22
2023-05-01T01:13:35.005Z,97003.81
2023-05-01T01:16:54.846Z,96997.09
2023-05-01T01:20:24.728Z,97002.56
2023-05-01T01:23:41.820Z,96999.72
2023-05-01T01:26:58.723Z,96998.88
2023-05-01T01:30:25.879Z,96996.81
2023-05-01T01:33:45.566Z,96995.94
2023-05-01T01:37:12.688Z,96992.66
2023-05-01T01:40:16.798Z,96991.00
2023-05-01T01:43:20.145Z,96992.03
2023-05-01T01:46:24.042Z,96992.03
2023-05-01T01:49:27.855Z,96986.34
2023-05-01T01:52:31.332Z,96995.50
2023-05-01T01:55:35.842Z,96984.28
2023-05-01T01:58:40.602Z,96989.75
2023-05-01T02:01:44.634Z,96991.31
2023-05-01T02:04:48.057Z,96979.66
2023-05-01T02:07:51.315Z,96976.66
2023-05-01T02:11:01.740Z,96970.06
2023-05-01T02:14:05.934Z,96975.19
2023-05-01T02:17:09.840Z,96971.72
2023-05-01T02:20:13.489Z,96981.84
2023-05-01T02:23:15.065Z,96973.09
2023-05-01T02:26:18.199Z,96972.09
2023-05-01T02:29:19.653Z,96979.03
2023-05-01T02:32:21.186Z,96970.06
2023-05-01T02:35:23.549Z,96978.59
2023-05-01T02:38:25.172Z,96969.63
2023-05-01T02:41:28.228Z,96982.84
2023-05-01T02:44:38.454Z,96966.34
2023-05-01T02:47:44.040Z,96966.16
2023-05-01T02:50:46.809Z,96972.47
2023-05-01T02:53:48.501Z,96969.84
2023-05-01T02:56:55.142Z,96965.53
2023-05-01T02:59:56.943Z,96963.88
2023-05-01T03:02:58.702Z,96963.69
2023-05-01T03:06:00.566Z,96965.91
2023-05-01T03:09:02.836Z,96956.16
2023-05-01T03:12:04.764Z,96959.63
2023-05-01T03:15:06.752Z,96961.22
2023-05-01T03:18:08.315Z,96960.59
2023-05-01T03:21:10.204Z,96953.28
2023-05-01T03:24:12.322Z,96960.50
2023-05-01T03:27:14.202Z,96961.06
2023-05-01T03:30:15.874Z,96965.91
2023-05-01T03:33:18.395Z,96960.44
2023-05-01T03:36:20.106Z,96961.81
2023-05-01T03:39:23.156Z,96957.34
2023-05-01T03:42:43.085Z,96954.50
2023-05-01T03:45:53.106Z,96955.50
2023-05-01T03:48:54.667Z,96955.31
2023-05-01T03:51:56.698Z,96956.16
2023-05-01T03:54:58.176Z,96957.97
2023-05-01T03:58:13.213Z,96957.28
2023-05-01T04:01:15.199Z,96960.91
2023-05-01T04:04:18.853Z,96966.38
2023-05-01T04:07:25.962Z,96969.38
2023-05-01T04:10:27.627Z,96976.69
2023-05-01T04:13:34.092Z,96972.69
2023-05-01T04:16:37.318Z,96971.22
2023-05-01T04:19:39.157Z,96969.38
2023-05-01T04:22:40.712Z,96984.91
2023-05-01T04:25:42.274Z,96974.78
2023-05-01T04:28:47.547Z,96973.59
2023-05-01T04:31:52.245Z,96981.25
2023-05-01T04:34:54.678Z,96975.44
2023-05-01T04:37:56.653Z,96976.06
2023-05-01T04:40:58.129Z,96979.16
2023-05-01T04:43:59.590Z,96980.19
2023-05-01T04:47:02.911Z,96984.91
2023-05-01T04:50:05.015Z,96985.94
2023-05-01T04:53:06.727Z,96991.09
2023-05-01T04:56:09.704Z,96982.41
2023-05-01T04:59:11.809Z,96983.69
2023-05-01T05:02:13.300Z,96987.22
2023-05-01T05:05:16.133Z,96989.75
2023-05-01T05:08:17.661Z,96992.66
2023-05-01T05:11:23.212Z,96991.28
2023-05-01T05:14:32.999Z,96994.72
2023-05-01T05:17:35.374Z,96994.28
2023-05-01T05:20:40.234Z,97002.88
2023-05-01T05:23:41.806Z,96997.19
2023-05-01T05:26:43.425Z,96995.19
2023-05-01T05:29:45.308Z,96998.44
2023-05-01T05:32:47.636Z,97005.03
2023-05-01T05:35:49.304Z,97000.38
2023-05-01T05:38:50.937Z,97000.81
2023-05-01T05:41:54.008Z,97006.81
2023-05-01T05:44:55.817Z,97007.66
2023-05-01T05:47:57.363Z,97012.28
2023-05-01T05:51:00.818Z,97014.59
2023-05-01T05:54:02.512Z,97017.50
2023-05-01T05:57:08.066Z,96999.34
2023-05-01T06:00:14.169Z,97011.19
2023-05-01T06:03:21.874Z,97007.13
2023-05-01T06:06:26.446Z,97018.94
2023-05-01T06:09:28.069Z,97020.19
2023-05-01T06:12:29.815Z,97011.69
2023-05-01T06:15:31.936Z,97014.38
2023-05-01T06:18:33.631Z,97013.13
2023-05-01T06:21:35.419Z,97016.81
2023-05-01T06:24:37.514Z,97012.81
2023-05-01T06:27:39.236Z,97014.03
2023-05-01T06:30:40.712Z,97016.34
2023-05-01T06:33:42.185Z,97010.66
2023-05-01T06:37:07.700Z,97011.03
2023-05-01T06:40:10.499Z,97013.63
2023-05-01T06:43:13.040Z,97016.28
2023-05-01T06:46:14.613Z,97019.19
2023-05-01T06:49:16.166Z,97029.69
2023-05-01T06:52:17.860Z,97031.94
2023-05-01T06:55:19.453Z,97021.44
2023-05-01T06:58:23.909Z,97030.09
2023-05-01T07:01:26.420Z,97027.91
2023-05-01T07:04:28.004Z,97032.66
2023-05-01T07:07:30.906Z,97037.19
2023-05-01T07:10:32.728Z,97035.63
2023-05-01T07:13:34.198Z,97039.69
2023-05-01T07:16:35.728Z,97036.81
2023-05-01T07:19:37.385Z,97038.81
2023-05-01T07:22:38.844Z,97041.00
2023-05-01T07:25:41.371Z,97047.72
2023-05-01T07:28:42.926Z,97055.91
2023-05-01T07:31:46.266Z,97059.56
2023-05-01T07:34:47.894Z,97058.28
2023-05-01T07:37:51.796Z,97051.25
2023-05-01T07:40:53.818Z,97049.69
2023-05-01T07:43:55.363Z,97054.56
2023-05-01T07:47:02.820Z,97053.75
2023-05-01T07:50:04.812Z,97055.81
2023-05-01T07:53:06.299Z,97062.16
2023-05-01T07:56:09.397Z,97059.13
2023-05-01T07:59:11.156Z,97062.22
2023-05-01T08:02:13.765Z,97060.81
2023-05-01T08:05:15.494Z,97065.91
2023-05-01T08:08:20.532Z,97064.06
2023-05-01T08:11:22.129Z,97054.13
2023-05-01T08:14:23.654Z,97062.94
2023-05-01T08:17:25.163Z,97067.09
2023-05-01T08:20:26.656Z,97061.22
2023-05-01T08:23:28.202Z,97057.97
2023-05-01T08:26:30.262Z,97058.59
2023-05-01T08:29:31.955Z,97053.50
2023-05-01T08:32:33.709Z,97051.25
2023-05-01T08:35:35.230Z,97059.00
2023-05-01T08:38:37.460Z,97059.41
2023-05-01T08:41:39.844Z,97057.75
2023-05-01T08:44:42.334Z,97062.66
2023-05-01T08:47:44.946Z,97059.25
2023-05-01T08:50:47.882Z,97059.44
2023-05-01T08:53:52.176Z,97062.53
2023-05-01T08:56:54.748Z,97053.38
2023-05-01T08:59:58.165Z,97054.63
2023-05-01T09:03:03.084Z,97061.16
2023-05-01T09:06:04.996Z,97062.19
2023-05-01T09:09:06.614Z,97060.94
2023-05-01T09:12:25.241Z,97071.31
2023-05-01T09:15:27.581Z,97061.91
2023-05-01T09:18:29.181Z,97068.09
2023-05-01T09:21:31.970Z,97064.66
2023-05-01T09:24:34.000Z,97062.78
2023-05-01T09:27:36.613Z,97064.44
2023-05-01T09:30:39.277Z,97070.69
2023-05-01T09:33:54.014Z,97074.50
2023-05-01T09:36:56.063Z,97070.34
2023-05-01T09:40:11.040Z,97071.03
2023-05-01T09:43:12.635Z,97067.09
2023-05-01T09:46:14.238Z,97073.41
2023-05-01T09:49:15.931Z,97067.81
2023-05-01T09:52:17.410Z,97057.88
2023-05-01T09:55:19.277Z,97057.56
2023-05-01T09:58:28.245Z,97046.47
2023-05-01T10:01:44.338Z,97055.97
2023-05-01T10:04:45.821Z,97055.16
2023-05-01T10:07:58.715Z,97051.66
2023-05-01T10:11:03.426Z,97055.53
2023-05-01T10:14:09.589Z,97055.97
2023-05-01T10:17:19.890Z,97049.91
2023-05-01T10:20:21.879Z,97047.91
2023-05-01T10:23:25.289Z,97041.19
2023-05-01T10:26:27.525Z,97043.56
2023-05-01T10:29:35.389Z,97048.34
2023-05-01T10:32:38.695Z,97041.72
2023-05-01T10:35:44.603Z,97045.91
2023-05-01T10:38:48.424Z,97041.19
2023-05-01T10:41:59.178Z,97043.97
2023-05-01T10:45:30.397Z,97042.59
2023-05-01T10:48:52.825Z,97037.59
2023-05-01T10:51:58.455Z,97045.53
2023-05-01T10:55:32.213Z,97040.41
2023-05-01T10:58:39.628Z,97046.00
2023-05-01T11:01:43.133Z,97036.84
2023-05-01T11:04:50.938Z,97036.72
2023-05-01T11:08:32.252Z,97032.25
2023-05-01T11:11:33.750Z,97029.84
2023-05-01T11:14:53.591Z,97016.34
2023-05-01T11:17:56.038Z,97021.06
2023-05-01T11:20:58.286Z,97016.75
2023-05-01T11:24:04.108Z,97020.06
2023-05-01T11:27:06.805Z,97023.50
2023-05-01T11:30:09.121Z,97016.16
2023-05-01T11:33:11.350Z,97018.69
2023-05-01T11:36:14.140Z,97017.53
2023-05-01T11:39:19.427Z,97008.06
2023-05-01T11:42:22.641Z,97003.59
2023-05-01T11:45:24.268Z,97005.88
2023-05-01T11:48:26.399Z,97009.44
2023-05-01T11:51:29.065Z,97002.03
2023-05-01T11:54:31.003Z,97002.94
2023-05-01T11:57:53.763Z,96994.06
2023-05-01T12:00:55.278Z,97003.22
2023-05-01T12:03:57.278Z,96994.78
2023-05-01T12:06:58.975Z,96995.38
2023-05-01T12:10:00.718Z,96989.41
2023-05-01T12:13:03.994Z,96982.97
2023-05-01T12:16:05.847Z,96978.72
2023-05-01T12:19:08.081Z,96979.69
2023-05-01T12:22:09.861Z,96981.28
2023-05-01T12:25:11.486Z,96993.31
2023-05-01T12:28:19.405Z,96988.50
2023-05-01T12:31:21.408Z,96991.09
2023-05-01T12:34:29.963Z,96987.69
2023-05-01T12:37:32.316Z,96990.75
2023-05-01T12:40:33.961Z,96993.50
2023-05-01T12:43:38.818Z,96983.91
2023-05-01T12:46:40.416Z,96983.13
2023-05-01T12:49:42.124Z,96996.31
2023-05-01T12:52:43.785Z,96996.22
2023-05-01T12:55:47.292Z,96990.47
2023-05-01T12:58:49.244Z,96986.53
2023-05-01T13:02:01.350Z,96988.03
2023-05-01T13:05:06.884Z,96994.22
2023-05-01T13:08:08.456Z,96991.78
2023-05-01T13:11:14.836Z,96998.63
2023-05-01T13:14:16.743Z,96986.94
2023-05-01T13:17:31.776Z,96992.56
2023-05-01T13:20:33.398Z,96994.31
2023-05-01T13:23:36.474Z,96989.78
2023-05-01T13:26:38.196Z,96993.16
2023-05-01T13:29:42.386Z,96996.03
2023-05-01T13:32:46.134Z,96993.28
2023-05-01T13:35:47.576Z,96984.22
2023-05-01T13:38:53.961Z,96991.03
2023-05-01T13:41:55.750Z,96987.97
2023-05-01T13:44:57.750Z,96989.78
2023-05-01T13:47:59.348Z,97003.44
2023-05-01T13:51:01.303Z,97000.50
2023-05-01T13:54:04.004Z,96996.28
2023-05-01T13:57:05.487Z,96987.59
2023-05-01T14:00:14.659Z,96986.03
2023-05-01T14:03:16.675Z,96980.94
2023-05-01T14:06:20.999Z,96974.34
2023-05-01T14:09:22.933Z,96977.91
2023-05-01T14:12:28.106Z,96973.41
2023-05-01T14:15:29.747Z,96978.88
2023-05-01T14:18:31.215Z,96972.81
2023-05-01T14:21:40.406Z,96970.38
2023-05-01T14:24:41.947Z,96969.91
2023-05-01T14:27:43.398Z,96974.25
2023-05-01T14:30:45.028Z,96968.16
2023-05-01T14:33:47.286Z,96968.72
2023-05-01T14:36:48.797Z,96970.38
2023-05-01T14:39:50.495Z,96971.63
2023-05-01T14:42:53.015Z,96966.16
2023-05-01T14:45:55.071Z,96968.00
2023-05-01T14:48:57.551Z,96965.66
2023-05-01T14:51:59.066Z,96962.53
2023-05-01T14:55:00.789Z,96954.88
2023-05-01T14:58:02.445Z,96946.78
2023-05-01T15:01:04.327Z,96944.16
2023-05-01T15:04:07.727Z,96950.28
2023-05-01T15:07:09.319Z,96951.28
2023-05-01T15:10:11.054Z,96945.41
2023-05-01T15:13:12.750Z,96948.06
2023-05-01T15:16:14.240Z,96954.75
2023-05-01T15:19:15.734Z,96954.31
2023-05-01T15:22:17.362Z,96955.69
2023-05-01T15:25:18.928Z,96953.84
2023-05-01T15:28:20.549Z,96959.56
2023-05-01T15:31:22.671Z,96963.59
2023-05-01T15:34:24.313Z,96970.63
2023-05-01T15:37:25.985Z,96982.16
2023-05-01T15:40:27.525Z,96975.16
2023-05-01T15:43:29.014Z,96977.47
2023-05-01T15:46:30.547Z,97006.00
2023-05-01T15:49:32.204Z,97012.22
2023-05-01T15:52:33.600Z,97016.00
2023-05-01T15:55:35.096Z,97018.56
2023-05-01T15:58:36.571Z,97018.50
2023-05-01T16:01:38.067Z,97025.28
2023-05-01T16:04:39.652Z,97036.38
2023-05-01T16:07:41.282Z,97033.25
2023-05-01T16:10:42.774Z,97042.00
2023-05-01T16:13:44.467Z,97047.22
2023-05-01T16:16:46.139Z,97049.06
2023-05-01T16:19:47.919Z,97051.97
2023-05-01T16:22:49.640Z,97051.81
2023-05-01T16:25:51.126Z,97069.03
2023-05-01T16:28:57.884Z,97066.72
2023-05-01T16:31:59.375Z,97068.28
2023-05-01T16:35:01.524Z,97078.06
2023-05-01T16:38:03.021Z,97067.00
2023-05-01T16:41:04.648Z,97072.09
2023-05-01T16:44:06.148Z,97073.06
2023-05-01T16:47:11.800Z,97071.72
2023-05-01T16:50:13.998Z,97077.19
2023-05-01T16:53:15.721Z,97080.13
2023-05-01T16:56:17.349Z,97078.34
2023-05-01T16:59:18.938Z,97069.88
2023-05-01T17:02:20.477Z,97076.78
2023-05-01T17:05:22.058Z,97078.84
2023-05-01T17:08:23.611Z,97074.84
2023-05-01T17:11:25.220Z,97082.06
2023-05-01T17:14:28.735Z,97083.22
2023-05-01T17:17:30.283Z,97080.94
2023-05-01T17:20:31.820Z,97084.78
2023-05-01T17:23:33.333Z,97080.63
2023-05-01T17:26:34.899Z,97078.13
2023-05-01T17:29:36.469Z,97086.16
2023-05-01T17:32:38.032Z,97083.50
2023-05-01T17:35:39.610Z,97081.94
2023-05-01T17:38:41.235Z,97082.38
2023-05-01T17:41:42.924Z,97083.66
2023-05-01T17:44:44.594Z,97086.53
2023-05-01T17:47:46.707Z,97095.97
2023-05-01T17:50:48.709Z,97098.22
2023-05-01T17:53:50.364Z,97102.50
2023-05-01T17:56:51.897Z,97102.31
2023-05-01T17:59:53.319Z,97105.38
2023-05-01T18:02:55.031Z,97110.69
2023-05-01T18:05:56.752Z,97109.63
2023-05-01T18:08:58.250Z,97116.75
2023-05-01T18:12:00.141Z,97118.81
2023-05-01T18:15:01.717Z,97123.09
2023-05-01T18:18:03.519Z,97126.09
2023-05-01T18:21:05.201Z,97130.19
2023-05-01T18:24:06.754Z,97130.16
2023-05-01T18:27:09.023Z,97139.53
2023-05-01T18:30:11.000Z,97141.34
2023-05-01T18:33:12.965Z,97145.19
2023-05-01T18:36:14.418Z,97147.88
2023-05-01T18:39:16.394Z,97151.75
2023-05-01T18:42:18.346Z,97157.31
2023-05-01T18:45:19.889Z,97153.63
2023-05-01T18:48:21.379Z,97162.81
2023-05-01T18:51:22.837Z,97162.13
2023-05-01T18:54:24.374Z,97167.50
2023-05-01T18:57:27.666Z,97178.13
2023-05-01T19:00:29.712Z,97183.66
2023-05-01T19:03:31.443Z,97178.53
2023-05-01T19:06:33.565Z,97194.28
2023-05-01T19:09:35.167Z,97196.25
2023-05-01T19:12:37.499Z,97205.78
2023-05-01T19:15:38.981Z,97201.56
2023-05-01T19:18:40.492Z,97208.13
2023-05-01T19:21:41.974Z,97214.88
2023-05-01T19:24:43.468Z,97215.44
2023-05-01T19:27:45.659Z,97226.50
2023-05-01T19:30:47.076Z,97223.41
2023-05-01T19:33:48.532Z,97220.56
2023-05-01T19:36:54.801Z,97230.56
2023-05-01T19:39:56.496Z,97236.22
2023-05-01T19:42:58.260Z,97232.31
2023-05-01T19:45:59.793Z,97230.06
2023-05-01T19:49:01.344Z,97243.53
2023-05-01T19:52:03.087Z,97247.53
2023-05-01T19:55:05.229Z,97251.91
2023-05-01T19:58:06.746Z,97255.97
2023-05-01T20:01:09.276Z,97256.41
2023-05-01T20:04:11.643Z,97260.38
2023-05-01T20:07:13.191Z,97266.13
2023-05-01T20:10:14.805Z,97264.47
2023-05-01T20:13:16.266Z,97276.34
2023-05-01T20:16:17.785Z,97269.78
2023-05-01T20:19:19.790Z,97279.09
2023-05-01T20:22:21.270Z,97271.50
2023-05-01T20:25:23.365Z,97278.47
2023-05-01T20:28:24.946Z,97280.25
2023-05-01T20:31:26.468Z,97292.53
2023-05-01T20:34:28.041Z,97284.94
2023-05-01T20:37:29.524Z,97286.16
2023-05-01T20:40:31.896Z,97284.25
2023-05-01T20:43:33.354Z,97284.44
2023-05-01T20:46:34.944Z,97283.59
2023-05-01T20:49:36.477Z,97285.38
2023-05-01T20:52:38.097Z,97285.38
2023-05-01T20:55:39.658Z,97296.16
2023-05-01T20:58:41.131Z,97297.50
2023-05-01T21:01:42.669Z,97302.44
2023-05-01T21:04:46.169Z,97314.25
2023-05-01T21:07:48.287Z,97307.22
2023-05-01T21:10:49.724Z,97302.66
2023-05-01T21:13:51.307Z,97304.22
2023-05-01T21:16:53.482Z,97316.19
2023-05-01T21:19:55.075Z,97314.72
2023-05-01T21:22:56.572Z,97308.53
2023-05-01T21:25:58.072Z,97312.91
2023-05-01T21:28:59.881Z,97312.97
2023-05-01T21:32:04.063Z,97304.22
2023-05-01T21:35:06.923Z,97305.38
2023-05-01T21:38:09.349Z,97306.94
2023-05-01T21:41:13.871Z,97308.94
2023-05-01T21:44:15.755Z,97319.00
2023-05-01T21:47:17.330Z,97309.06
2023-05-01T21:50:21.166Z,97309.59
2023-05-01T21:53:22.799Z,97312.84
2023-05-01T21:56:24.843Z,97321.53
2023-05-01T21:59:34.877Z,97322.81
2023-05-01T22:02:42.895Z,97331.31
2023-05-01T22:05:44.613Z,97321.63
2023-05-01T22:08:46.076Z,97317.13
2023-05-01T22:11:47.763Z,97318.31
2023-05-01T22:14:49.225Z,97325.97
2023-05-01T22:17:50.772Z,97326.84
2023-05-01T22:20:52.522Z,97327.41
2023-05-01T22:23:55.359Z,97336.56
2023-05-01T22:26:57.107Z,97329.53
2023-05-01T22:29:58.687Z,97330.22
2023-05-01T22:33:00.551Z,97333.22
2023-05-01T22:36:02.240Z,97336.63
2023-05-01T22:39:04.166Z,97338.13
2023-05-01T22:42:05.818Z,97331.00
2023-05-01T22:45:08.396Z,97343.91
2023-05-01T22:48:10.638Z,97335.34
2023-05-01T22:51:12.253Z,97343.09
2023-05-01T22:54:13.738Z,97354.78
2023-05-01T22:57:15.383Z,97351.09
2023-05-01T23:00:17.161Z,97357.41
2023-05-01T23:03:18.863Z,97357.75
2023-05-01T23:06:20.398Z,97356.94
2023-05-01T23:09:21.860Z,97359.38
2023-05-01T23:12:23.596Z,97366.50
2023-05-01T23:15:25.963Z,97361.50
2023-05-01T23:18:33.057Z,97368.63
2023-05-01T23:21:34.497Z,97363.34
2023-05-01T23:24:41.435Z,97362.16
2023-05-01T23:27:48.331Z,97365.97
2023-05-01T23:30:57.305Z,97363.34
2023-05-01T23:34:02.137Z,97366.63
2023-05-01T23:37:03.598Z,97376.19
2023-05-01T23:40:06.654Z,97365.81
2023-05-01T23:43:08.898Z,97367.44
2023-05-01T23:46:10.510Z,97370.25
2023-05-01T23:49:12.532Z,97367.97
2023-05-01T23:52:14.219Z,97367.97
2023-05-01T23:55:15.869Z,97365.69
2023-05-01T23:58:17.377Z,97367.19
